Time;durP1;ratioP1;P1;durP2;ratioP2;P2;SDS_P1;SDS_P2;PMS_P1;PMS_P2;Temp;Humidity;BMP_temperature;BMP_pressure;BME280_temperature;BME280_humidity;BME280_pressure;Samples;Min_cycle;Max_cycle;Signal;HPM_P1;HPM_P2
2023/06/02 00:01:37;;;;;;;;;;;;;;;10.73;63.04;101251.56;108867;1256;57678;-84
2023/06/02 00:04:03;;;;;;;;;;;;;;;10.73;63.01;101251.39;108778;1256;124483;-83
2023/06/02 00:06:33;;;;;;;;;;;;;;;10.73;62.92;101259.48;108808;1256;57806;-84
2023/06/02 00:09:00;;;;;;;;;;;;;;;10.70;62.63;101261.85;108637;1257;124128;-83
2023/06/02 00:11:26;;;;;;;;;;;;;;;10.68;62.64;101257.25;108759;1256;60201;-84
2023/06/02 00:13:53;;;;;;;;;;;;;;;10.69;62.64;101261.45;108716;1256;57749;-83
2023/06/02 00:16:19;;;;;;;;;;;;;;;10.70;62.61;101261.32;108727;1256;125148;-83
2023/06/02 00:18:45;;;;;;;;;;;;;;;10.70;62.67;101253.45;108815;1256;57641;-83
2023/06/02 00:21:12;;;;;;;;;;;;;;;10.70;62.74;101248.70;108826;1256;123814;-83
2023/06/02 00:23:38;;;;;;;;;;;;;;;10.71;62.82;101252.06;108877;1256;57953;-83
2023/06/02 00:26:04;;;;;;;;;;;;;;;10.67;63.05;101260.38;108893;1256;57873;-83
2023/06/02 00:28:31;;;;;;;;;;;;;;;10.63;63.18;101259.34;108576;1256;123990;-83
2023/06/02 00:30:59;;;;;;;;;;;;;;;10.60;63.50;101250.47;108819;1257;71959;-84
2023/06/02 00:33:25;;;;;;;;;;;;;;;10.60;63.62;101252.77;108804;1256;124970;-84
2023/06/02 00:35:51;;;;;;;;;;;;;;;10.61;63.76;101251.72;108921;1256;57784;-84
2023/06/02 00:38:18;;;;;;;;;;;;;;;10.60;63.90;101252.58;108865;1257;57689;-83
2023/06/02 00:40:46;;;;;;;;;;;;;;;10.58;64.14;101252.69;108737;1256;125554;-82
2023/06/02 00:43:12;;;;;;;;;;;;;;;10.53;64.47;101250.94;108634;1256;57961;-83
2023/06/02 00:45:38;;;;;;;;;;;;;;;10.48;64.97;101252.20;108763;1256;125191;-83
2023/06/02 00:48:08;;;;;;;;;;;;;;;10.42;65.31;101252.52;108799;1260;60563;-83
2023/06/02 00:50:35;;;;;;;;;;;;;;;10.33;65.63;101248.00;108801;1256;73624;-83
2023/06/02 00:53:01;;;;;;;;;;;;;;;10.28;65.84;101249.55;108568;1256;125057;-83
2023/06/02 00:55:28;;;;;;;;;;;;;;;10.26;66.18;101245.61;108712;1256;57979;-83
2023/06/02 00:57:56;;;;;;;;;;;;;;;10.24;66.51;101243.99;108642;1256;124940;-83
2023/06/02 01:00:23;;;;;;;;;;;;;;;10.24;66.64;101246.42;108761;1256;58345;-83
2023/06/02 01:02:51;;;;;;;;;;;;;;;10.23;66.68;101241.45;108715;1261;58038;-83
2023/06/02 01:05:19;;;;;;;;;;;;;;;10.20;66.77;101243.67;108604;1257;126296;-84
2023/06/02 01:07:46;;;;;;;;;;;;;;;10.21;66.89;101241.79;108696;1258;72816;-84
2023/06/02 01:10:14;;;;;;;;;;;;;;;10.26;67.01;101248.08;108682;1256;124970;-84
2023/06/02 01:12:40;;;;;;;;;;;;;;;10.32;67.04;101243.05;108754;1256;58645;-84
2023/06/02 01:15:07;;;;;;;;;;;;;;;10.41;67.05;101246.16;108805;1256;125348;-83
2023/06/02 01:17:35;;;;;;;;;;;;;;;10.46;67.00;101245.98;108741;1256;65457;-83
2023/06/02 01:20:03;;;;;;;;;;;;;;;10.50;66.95;101247.16;108740;1256;73590;-83
2023/06/02 01:22:31;;;;;;;;;;;;;;;10.52;66.86;101240.39;108798;1256;124548;-84
2023/06/02 01:24:59;;;;;;;;;;;;;;;10.55;66.79;101236.63;108931;1256;60693;-84
2023/06/02 01:27:26;;;;;;;;;;;;;;;10.56;66.65;101239.80;108748;1256;123981;-84
2023/06/02 01:29:54;;;;;;;;;;;;;;;10.54;66.58;101238.52;108908;1256;58376;-83
2023/06/02 01:32:41;;;;;;;;;;;;;;;10.53;66.46;101237.08;108698;1257;71414;-83
2023/06/02 01:35:09;;;;;;;;;;;;;;;10.54;66.54;101236.93;108799;1256;124446;-83
2023/06/02 01:37:36;;;;;;;;;;;;;;;10.55;66.51;101242.73;108946;1256;59824;-83
2023/06/02 01:40:05;;;;;;;;;;;;;;;10.55;66.43;101246.09;108594;1256;125055;-83
2023/06/02 01:42:32;;;;;;;;;;;;;;;10.55;66.47;101241.69;108790;1256;67424;-83
2023/06/02 01:44:58;;;;;;;;;;;;;;;10.57;66.44;101249.50;108649;1256;125325;-83
2023/06/02 01:47:24;;;;;;;;;;;;;;;10.61;66.43;101250.51;108915;1256;58281;-83
2023/06/02 01:49:50;;;;;;;;;;;;;;;10.67;66.38;101257.90;108757;1256;58613;-83
2023/06/02 01:52:17;;;;;;;;;;;;;;;10.68;66.19;101253.36;108709;1256;124249;-84
2023/06/02 01:54:43;;;;;;;;;;;;;;;10.64;65.94;101251.15;108869;1256;58813;-84
2023/06/02 01:57:13;;;;;;;;;;;;;;;10.61;65.89;101249.27;108778;1256;124737;-83
2023/06/02 01:59:40;;;;;;;;;;;;;;;10.60;65.85;101249.92;108878;1256;58962;-83
2023/06/02 02:02:07;;;;;;;;;;;;;;;10.59;65.89;101251.14;108882;1256;58735;-84
2023/06/02 02:04:34;;;;;;;;;;;;;;;10.60;65.86;101255.90;108785;1256;124659;-84
2023/06/02 02:07:01;;;;;;;;;;;;;;;10.60;65.68;101254.34;108824;1256;65771;-84
2023/06/02 02:09:28;;;;;;;;;;;;;;;10.60;65.71;101259.08;108597;1256;124616;-84
2023/06/02 02:11:54;;;;;;;;;;;;;;;10.59;65.71;101262.38;108869;1256;60761;-84
2023/06/02 02:14:21;;;;;;;;;;;;;;;10.61;65.64;101260.67;108857;1256;58579;-84
2023/06/02 02:16:49;;;;;;;;;;;;;;;10.63;65.67;101260.58;108826;1256;125311;-84
2023/06/02 02:19:16;;;;;;;;;;;;;;;10.64;65.54;101270.45;108929;1256;68769;-84
2023/06/02 02:21:42;;;;;;;;;;;;;;;10.62;65.49;101273.02;108638;1256;124845;-84
2023/06/02 02:24:09;;;;;;;;;;;;;;;10.60;65.38;101286.27;108833;1257;58441;-83
2023/06/02 02:26:35;;;;;;;;;;;;;;;10.56;65.45;101288.23;108900;1257;58511;-83
2023/06/02 02:29:01;;;;;;;;;;;;;;;10.52;65.44;101289.87;108653;1262;124683;-83
2023/06/02 02:31:28;;;;;;;;;;;;;;;10.49;65.42;101281.16;108718;1256;58678;-83
2023/06/02 02:33:54;;;;;;;;;;;;;;;10.47;65.49;101282.67;108533;1256;126817;-83
2023/06/02 02:36:23;;;;;;;;;;;;;;;10.46;65.45;101286.33;108650;1256;59738;-83
2023/06/02 02:38:50;;;;;;;;;;;;;;;10.46;65.45;101279.67;108625;1256;58512;-83
2023/06/02 02:41:16;;;;;;;;;;;;;;;10.47;65.58;101277.08;108644;1257;124916;-83
2023/06/02 02:43:42;;;;;;;;;;;;;;;10.50;65.59;101276.98;108905;1256;58637;-83
2023/06/02 02:46:08;;;;;;;;;;;;;;;10.50;65.61;101285.95;108659;1256;124786;-83
2023/06/02 02:48:34;;;;;;;;;;;;;;;10.47;65.53;101279.52;108781;1256;58546;-83
2023/06/02 02:51:01;;;;;;;;;;;;;;;10.45;65.39;101288.73;108807;1260;124457;-83
2023/06/02 02:53:31;;;;;;;;;;;;;;;10.41;65.35;101290.52;108912;1257;59000;-84
2023/06/02 02:55:57;;;;;;;;;;;;;;;10.40;65.43;101285.76;108754;1257;64912;-83
2023/06/02 02:58:24;;;;;;;;;;;;;;;10.39;65.37;101292.40;108592;1261;125144;-83
2023/06/02 03:00:50;;;;;;;;;;;;;;;10.39;65.32;101300.46;108712;1259;58616;-83
2023/06/02 03:03:16;;;;;;;;;;;;;;;10.36;65.35;101302.11;108657;1256;126278;-83
2023/06/02 03:05:45;;;;;;;;;;;;;;;10.34;65.33;101306.44;108893;1256;58494;-84
2023/06/02 03:08:12;;;;;;;;;;;;;;;10.35;65.38;101300.49;108773;1256;67372;-83
2023/06/02 03:10:39;;;;;;;;;;;;;;;10.38;65.41;101306.40;108690;1256;124167;-83
2023/06/02 03:13:05;;;;;;;;;;;;;;;10.41;65.20;101309.31;108776;1259;58456;-83
2023/06/02 03:15:33;;;;;;;;;;;;;;;10.42;65.11;101317.23;108885;1256;125665;-83
2023/06/02 03:18:00;;;;;;;;;;;;;;;10.40;65.04;101314.38;108722;1256;73887;-83
2023/06/02 03:20:26;;;;;;;;;;;;;;;10.39;65.00;101329.79;108945;1256;67547;-84
2023/06/02 03:22:52;;;;;;;;;;;;;;;10.36;64.81;101317.20;108700;1256;125102;-84
2023/06/02 03:25:22;;;;;;;;;;;;;;;10.35;64.74;101319.10;108948;1260;58609;-84
2023/06/02 03:27:51;;;;;;;;;;;;;;;10.35;64.74;101319.29;108749;1260;124895;-84
2023/06/02 03:30:17;;;;;;;;;;;;;;;10.35;64.62;101321.02;108721;1257;73934;-84
2023/06/02 03:32:43;;;;;;;;;;;;;;;10.33;64.66;101324.48;108847;1257;58727;-84
2023/06/02 03:35:09;;;;;;;;;;;;;;;10.38;64.59;101325.69;108829;1256;124318;-84
2023/06/02 03:37:39;;;;;;;;;;;;;;;10.39;64.49;101329.95;108767;1256;58663;-84
2023/06/02 03:40:06;;;;;;;;;;;;;;;10.41;64.34;101326.85;108633;1256;126009;-84
2023/06/02 03:42:32;;;;;;;;;;;;;;;10.40;64.40;101336.83;108884;1256;74331;-84
2023/06/02 03:44:58;;;;;;;;;;;;;;;10.38;64.23;101328.67;108614;1262;124992;-83
2023/06/02 03:47:24;;;;;;;;;;;;;;;10.41;64.20;101327.73;108714;1263;58565;-84
2023/06/02 03:49:51;;;;;;;;;;;;;;;10.45;64.13;101328.39;108784;1256;58579;-84
2023/06/02 03:52:17;;;;;;;;;;;;;;;10.49;64.05;101335.73;108717;1256;126521;-84
2023/06/02 03:54:43;;;;;;;;;;;;;;;10.52;64.00;101329.17;108838;1256;58518;-84
2023/06/02 03:57:09;;;;;;;;;;;;;;;10.57;63.87;101327.05;108763;1257;124122;-83
2023/06/02 03:59:41;;;;;;;;;;;;;;;10.63;63.86;101341.32;108715;1256;58364;-84
2023/06/02 04:02:07;;;;;;;;;;;;;;;10.67;63.72;101344.45;108779;1257;58540;-84
2023/06/02 04:04:33;;;;;;;;;;;;;;;10.71;63.70;101353.33;108692;1256;125409;-84
2023/06/02 04:07:02;;;;;;;;;;;;;;;10.72;63.48;101359.87;108962;1256;58297;-84
2023/06/02 04:09:28;;;;;;;;;;;;;;;10.70;63.40;101358.06;108779;1256;124040;-84
2023/06/02 04:11:54;;;;;;;;;;;;;;;10.70;63.10;101366.48;108938;1256;58957;-84
2023/06/02 04:14:27;;;;;;;;;;;;;;;10.67;63.07;101362.52;108838;1256;58595;-84
2023/06/02 04:16:54;;;;;;;;;;;;;;;10.65;62.92;101365.25;108683;1257;125476;-84
2023/06/02 04:19:20;;;;;;;;;;;;;;;10.68;62.99;101363.94;108974;1273;74521;-84
2023/06/02 04:21:46;;;;;;;;;;;;;;;10.75;62.89;101370.31;108874;1262;123725;-84
2023/06/02 04:24:12;;;;;;;;;;;;;;;10.78;62.86;101366.39;108861;1259;58730;-84
2023/06/02 04:26:39;;;;;;;;;;;;;;;10.80;62.77;101368.21;108833;1256;58590;-84
2023/06/02 04:29:19;;;;;;;;;;;;;;;10.81;62.67;101377.38;108844;1256;58631;-88
2023/06/02 04:32:17;;;;;;;;;;;;;;;10.80;62.53;101379.79;108977;1256;58571;-89
2023/06/02 04:34:45;;;;;;;;;;;;;;;10.79;62.41;101384.17;108867;1260;124333;-88
2023/06/02 04:37:21;;;;;;;;;;;;;;;10.83;62.35;101383.41;108733;1256;73701;-85
2023/06/02 04:39:52;;;;;;;;;;;;;;;10.86;62.36;101379.83;108882;1256;123840;-84
2023/06/02 04:42:20;;;;;;;;;;;;;;;10.93;62.30;101389.86;108842;1256;58559;-86
2023/06/02 04:44:51;;;;;;;;;;;;;;;10.93;62.08;101388.31;108686;1256;73144;-85
2023/06/02 04:47:17;;;;;;;;;;;;;;;10.95;62.10;101394.19;108625;1256;123651;-84
2023/06/02 04:49:43;;;;;;;;;;;;;;;10.98;61.91;101399.36;108762;1257;58640;-81
2023/06/02 04:52:23;;;;;;;;;;;;;;;10.99;61.71;101398.52;108680;1256;124359;-88
2023/06/02 04:54:51;;;;;;;;;;;;;;;10.98;61.63;101401.49;108729;1256;60666;-84
2023/06/02 04:57:18;;;;;;;;;;;;;;;10.97;61.59;101402.50;108689;1258;124043;-84
2023/06/02 04:59:47;;;;;;;;;;;;;;;10.98;61.41;101401.82;108840;1257;58255;-85
2023/06/02 05:02:13;;;;;;;;;;;;;;;10.99;61.32;101403.42;108793;1256;73126;-91
2023/06/02 05:04:46;;;;;;;;;;;;;;;11.03;61.12;101406.91;108666;1256;124017;-91
2023/06/02 05:07:12;;;;;;;;;;;;;;;11.10;61.03;101411.72;108952;1259;59562;-92
2023/06/02 05:09:39;;;;;;;;;;;;;;;11.21;60.84;101419.12;108691;1257;124533;-94
2023/06/02 05:12:05;;;;;;;;;;;;;;;11.30;60.54;101420.45;108763;1257;67740;-83
2023/06/02 05:14:32;;;;;;;;;;;;;;;11.36;60.43;101417.29;108765;1254;73042;-83
2023/06/02 05:17:02;;;;;;;;;;;;;;;11.49;60.30;101428.46;108865;1259;124422;-86
2023/06/02 05:19:28;;;;;;;;;;;;;;;11.61;59.93;101426.55;108940;1257;58657;-82
2023/06/02 05:21:57;;;;;;;;;;;;;;;11.76;59.79;101426.14;108714;1257;123920;-83
2023/06/02 05:24:23;;;;;;;;;;;;;;;11.96;59.59;101433.09;108971;1256;59245;-83
2023/06/02 05:26:50;;;;;;;;;;;;;;;12.17;59.05;101435.48;108813;1256;58489;-84
2023/06/02 05:29:16;;;;;;;;;;;;;;;12.30;58.64;101436.55;108780;1256;124555;-83
2023/06/02 05:31:44;;;;;;;;;;;;;;;12.73;58.80;101429.84;108758;1256;58441;-83
2023/06/02 05:34:10;;;;;;;;;;;;;;;14.24;59.85;101439.42;108808;1271;124194;-83
2023/06/02 05:36:37;;;;;;;;;;;;;;;15.64;56.47;101438.84;108897;1256;58733;-83
2023/06/02 05:39:03;;;;;;;;;;;;;;;15.18;54.14;101431.73;108662;1256;125101;-83
2023/06/02 05:41:34;;;;;;;;;;;;;;;14.50;53.70;101435.42;109052;1259;58564;-83
2023/06/02 05:44:01;;;;;;;;;;;;;;;14.05;53.37;101445.08;108865;1257;58654;-84
2023/06/02 05:46:31;;;;;;;;;;;;;;;13.59;53.48;101450.73;108765;1256;124630;-84
2023/06/02 05:48:57;;;;;;;;;;;;;;;13.41;53.54;101453.30;108807;1261;69206;-84
2023/06/02 05:51:46;;;;;;;;;;;;;;;13.19;53.27;101463.83;108998;1256;58246;-83
2023/06/02 05:54:44;;;;;;;;;;;;;;;12.69;52.78;101463.16;108804;1255;58547;-84
2023/06/02 05:57:23;;;;;;;;;;;;;;;12.48;52.90;101469.65;108615;1259;124108;-84
2023/06/02 06:00:24;;;;;;;;;;;;;;;;;;;;;
2023/06/02 06:03:17;;;;;;;;;;;;;;;12.38;53.44;101472.68;108390;1261;124034;-84
2023/06/02 06:05:43;;;;;;;;;;;;;;;12.37;53.40;101485.33;108722;1260;71334;-83
2023/06/02 06:08:09;;;;;;;;;;;;;;;12.32;52.93;101489.95;108691;1264;58188;-84
2023/06/02 06:10:42;;;;;;;;;;;;;;;12.25;53.00;101483.77;108654;1260;123926;-83
2023/06/02 06:13:08;;;;;;;;;;;;;;;12.24;53.08;101491.47;108721;1260;75275;-83
2023/06/02 06:15:51;;;;;;;;;;;;;;;;;;;;;
2023/06/02 06:18:23;;;;;;;;;;;;;;;11.99;52.53;101497.05;108669;1260;73382;-83
2023/06/02 06:20:49;;;;;;;;;;;;;;;11.87;52.79;101494.02;108719;1265;59223;-84
2023/06/02 06:23:15;;;;;;;;;;;;;;;11.87;52.90;101498.95;108773;1260;58212;-82
2023/06/02 06:25:41;;;;;;;;;;;;;;;11.85;52.44;101502.21;108970;1259;58621;-82
2023/06/02 06:28:08;;;;;;;;;;;;;;;11.82;52.53;101498.59;108877;1260;124592;-83
2023/06/02 06:30:35;;;;;;;;;;;;;;;11.82;52.48;101500.52;108980;1269;58451;-83
2023/06/02 06:33:06;;;;;;;;;;;;;;;11.78;52.41;101509.20;108834;1272;59192;-84
2023/06/02 06:35:35;;;;;;;;;;;;;;;11.74;52.38;101500.98;108920;1257;124348;-83
2023/06/02 06:38:01;;;;;;;;;;;;;;;11.70;52.22;101516.13;109026;1259;73512;-83
2023/06/02 06:40:27;;;;;;;;;;;;;;;11.65;52.31;101505.27;108917;1259;125096;-84
2023/06/02 06:42:54;;;;;;;;;;;;;;;11.67;51.95;101507.95;108968;1257;58570;-83
2023/06/02 06:45:20;;;;;;;;;;;;;;;11.65;51.76;101521.77;108831;1257;124109;-82
2023/06/02 06:47:46;;;;;;;;;;;;;;;11.59;51.65;101525.97;108923;1259;58577;-82
2023/06/02 06:50:15;;;;;;;;;;;;;;;11.50;51.27;101517.06;108791;1256;58583;-83
2023/06/02 06:52:43;;;;;;;;;;;;;;;11.49;51.50;101530.40;108762;1256;125466;-83
2023/06/02 06:55:09;;;;;;;;;;;;;;;11.55;51.63;101535.32;108885;1257;72766;-83
2023/06/02 06:57:42;;;;;;;;;;;;;;;11.59;51.50;101538.62;108802;1257;124138;-83
2023/06/02 07:00:10;;;;;;;;;;;;;;;11.56;51.20;101542.77;108907;1257;61333;-83
2023/06/02 07:02:37;;;;;;;;;;;;;;;11.52;50.82;101561.25;108977;1259;73917;-83
2023/06/02 07:05:04;;;;;;;;;;;;;;;11.44;50.30;101551.13;108865;1257;124417;-83
2023/06/02 07:07:30;;;;;;;;;;;;;;;11.39;50.18;101548.31;108790;1261;72598;-83
2023/06/02 07:09:56;;;;;;;;;;;;;;;11.39;50.27;101559.92;108665;1271;125001;-82
2023/06/02 07:12:22;;;;;;;;;;;;;;;11.41;50.18;101562.61;108970;1272;58720;-83
2023/06/02 07:14:50;;;;;;;;;;;;;;;11.37;49.76;101569.50;108867;1260;58613;-83
2023/06/02 07:17:17;;;;;;;;;;;;;;;11.33;49.92;101571.33;108717;1260;124600;-83
2023/06/02 07:19:43;;;;;;;;;;;;;;;11.37;50.15;101573.21;108880;1257;72629;-82
2023/06/02 07:22:10;;;;;;;;;;;;;;;11.45;50.18;101571.38;108631;1271;124490;-83
2023/06/02 07:24:41;;;;;;;;;;;;;;;11.49;50.08;101579.97;108819;1261;58456;-84
2023/06/02 07:27:07;;;;;;;;;;;;;;;11.54;49.75;101586.96;108820;1257;72804;-84
2023/06/02 07:29:33;;;;;;;;;;;;;;;11.53;49.52;101591.34;108673;1262;123961;-84
2023/06/02 07:32:00;;;;;;;;;;;;;;;11.56;49.48;101590.56;108899;1261;59315;-82
2023/06/02 07:34:26;;;;;;;;;;;;;;;11.56;49.51;101592.13;108664;1262;124176;-82
2023/06/02 07:36:52;;;;;;;;;;;;;;;11.57;49.44;101594.84;108879;1260;58622;-83
2023/06/02 07:39:19;;;;;;;;;;;;;;;11.62;49.34;101599.38;108804;1256;125022;-82
2023/06/02 07:41:45;;;;;;;;;;;;;;;11.64;49.04;101598.76;108893;1257;58679;-83
2023/06/02 07:44:11;;;;;;;;;;;;;;;11.63;48.60;101601.19;108672;1261;58623;-82
2023/06/02 07:46:38;;;;;;;;;;;;;;;11.63;48.30;101606.29;108738;1256;123807;-83
2023/06/02 07:49:04;;;;;;;;;;;;;;;11.64;48.49;101600.67;108689;1262;58723;-82
2023/06/02 07:51:32;;;;;;;;;;;;;;;11.65;48.47;101609.15;108634;1262;125909;-83
2023/06/02 07:53:58;;;;;;;;;;;;;;;11.61;48.44;101606.73;108980;1259;58600;-83
2023/06/02 07:56:24;;;;;;;;;;;;;;;11.62;48.10;101618.20;108967;1257;59310;-83
2023/06/02 07:58:51;;;;;;;;;;;;;;;11.62;47.87;101615.90;108905;1257;124716;-83
2023/06/02 08:01:17;;;;;;;;;;;;;;;11.61;47.78;101617.12;109004;1260;58539;-83
2023/06/02 08:03:43;;;;;;;;;;;;;;;11.65;48.15;101618.31;108793;1260;124543;-83
2023/06/02 08:06:09;;;;;;;;;;;;;;;11.72;47.74;101626.27;108713;1262;58356;-83
2023/06/02 08:08:36;;;;;;;;;;;;;;;11.74;47.86;101633.58;108758;1258;58676;-83
2023/06/02 08:11:02;;;;;;;;;;;;;;;11.79;47.84;101634.05;108726;1258;125494;-83
2023/06/02 08:13:28;;;;;;;;;;;;;;;11.77;47.74;101634.52;108896;1260;58339;-83
2023/06/02 08:15:54;;;;;;;;;;;;;;;11.80;47.73;101638.49;108675;1257;125549;-82
2023/06/02 08:18:20;;;;;;;;;;;;;;;11.78;47.89;101631.04;108693;1258;58751;-83
2023/06/02 08:20:47;;;;;;;;;;;;;;;11.81;47.97;101643.48;108664;1271;58655;-82
2023/06/02 08:23:13;;;;;;;;;;;;;;;11.82;47.57;101641.05;108665;1259;124410;-83
2023/06/02 08:25:40;;;;;;;;;;;;;;;11.80;47.81;101632.68;108881;1260;58948;-83
2023/06/02 08:28:07;;;;;;;;;;;;;;;11.80;47.97;101636.92;108686;1267;123809;-83
2023/06/02 08:30:36;;;;;;;;;;;;;;;11.85;48.05;101632.19;108842;1271;58627;-83
2023/06/02 08:33:03;;;;;;;;;;;;;;;11.97;47.67;101644.02;108857;1257;71276;-82
2023/06/02 08:35:29;;;;;;;;;;;;;;;12.03;46.78;101642.46;108740;1261;123900;-82
2023/06/02 08:37:56;;;;;;;;;;;;;;;12.01;46.58;101651.57;108885;1257;59469;-82
2023/06/02 08:40:23;;;;;;;;;;;;;;;12.01;47.06;101651.56;108764;1258;124537;-82
2023/06/02 08:42:50;;;;;;;;;;;;;;;12.05;47.20;101652.05;108874;1257;67050;-82
2023/06/02 08:45:22;;;;;;;;;;;;;;;12.08;47.53;101652.85;108689;1258;124671;-82
2023/06/02 08:47:50;;;;;;;;;;;;;;;12.16;47.57;101651.16;108749;1260;58658;-83
2023/06/02 08:50:16;;;;;;;;;;;;;;;12.26;47.26;101659.05;109040;1256;58828;-82
2023/06/02 08:52:42;;;;;;;;;;;;;;;12.31;46.97;101665.91;108754;1255;123755;-83
2023/06/02 08:55:09;;;;;;;;;;;;;;;12.29;46.57;101665.14;108799;1257;58734;-83
2023/06/02 08:57:35;;;;;;;;;;;;;;;12.25;46.57;101657.81;108375;1260;366652;-82
2023/06/02 09:00:02;;;;;;;;;;;;;;;12.25;46.45;101670.30;108919;1257;58608;-82
2023/06/02 09:02:29;;;;;;;;;;;;;;;12.25;46.37;101665.89;108927;1257;59272;-83
2023/06/02 09:04:56;;;;;;;;;;;;;;;12.31;46.34;101671.89;108746;1257;124492;-83
2023/06/02 09:07:22;;;;;;;;;;;;;;;12.40;46.58;101681.16;108857;1260;58596;-83
2023/06/02 09:09:49;;;;;;;;;;;;;;;12.45;46.68;101672.17;108741;1258;124495;-83
2023/06/02 09:12:17;;;;;;;;;;;;;;;12.51;46.82;101689.09;108918;1257;58604;-82
2023/06/02 09:14:44;;;;;;;;;;;;;;;12.51;46.99;101672.18;108832;1260;59335;-83
2023/06/02 09:17:24;;;;;;;;;;;;;;;12.55;46.58;101675.66;108731;1257;125495;-82
2023/06/02 09:19:51;;;;;;;;;;;;;;;12.51;45.82;101676.41;108968;1257;68256;-82
2023/06/02 09:22:17;;;;;;;;;;;;;;;12.51;45.85;101679.95;108663;1257;124226;-83
2023/06/02 09:24:44;;;;;;;;;;;;;;;12.53;46.05;101680.00;108799;1257;58624;-82
2023/06/02 09:27:13;;;;;;;;;;;;;;;12.54;45.86;101692.00;108873;1258;58731;-83
2023/06/02 09:29:40;;;;;;;;;;;;;;;12.50;45.90;101701.20;108788;1255;124274;-83
2023/06/02 09:32:12;;;;;;;;;;;;;;;12.47;45.80;101702.17;109002;1256;66987;-82
2023/06/02 09:34:39;;;;;;;;;;;;;;;12.43;45.36;101699.59;108958;1256;124927;-83
2023/06/02 09:37:09;;;;;;;;;;;;;;;12.47;45.81;101699.17;108988;1257;58571;-83
2023/06/02 09:39:38;;;;;;;;;;;;;;;12.61;46.42;101704.90;108913;1256;126046;-83
2023/06/02 09:42:05;;;;;;;;;;;;;;;12.69;46.27;101708.14;108995;1257;73903;-83
2023/06/02 09:44:31;;;;;;;;;;;;;;;12.74;46.65;101713.24;108841;1257;67791;-83
2023/06/02 09:46:59;;;;;;;;;;;;;;;12.79;46.66;101712.17;108678;1260;124763;-83
2023/06/02 09:49:25;;;;;;;;;;;;;;;12.78;46.45;101715.48;108891;1257;59086;-83
2023/06/02 09:51:51;;;;;;;;;;;;;;;12.72;46.40;101738.54;108753;1257;125136;-83
2023/06/02 09:54:18;;;;;;;;;;;;;;;12.65;46.38;101715.23;108984;1259;58466;-84
2023/06/02 09:56:44;;;;;;;;;;;;;;;12.69;46.68;101719.25;108826;1257;58387;-83
2023/06/02 09:59:10;;;;;;;;;;;;;;;12.76;46.77;101722.64;108747;1256;125499;-83
2023/06/02 10:01:37;;;;;;;;;;;;;;;12.76;46.64;101713.82;109023;1256;58301;-83
2023/06/02 10:04:04;;;;;;;;;;;;;;;12.75;46.33;101722.27;108737;1256;125068;-83
2023/06/02 10:06:36;;;;;;;;;;;;;;;12.74;46.54;101725.92;108860;1255;58360;-83
2023/06/02 10:09:16;;;;;;;;;;;;;;;12.71;46.74;101729.01;109009;1257;67345;-83
2023/06/02 10:11:55;;;;;;;;;;;;;;;12.72;46.62;101743.10;108810;1256;71580;-83
2023/06/02 10:14:24;;;;;;;;;;;;;;;12.75;47.17;101742.34;108861;1257;59308;-83
2023/06/02 10:16:53;;;;;;;;;;;;;;;12.85;47.11;101748.11;108938;1259;124139;-83
2023/06/02 10:19:20;;;;;;;;;;;;;;;12.90;46.66;101754.08;109067;1257;72635;-83
2023/06/02 10:21:48;;;;;;;;;;;;;;;12.87;46.58;101739.89;108883;1257;123975;-82
2023/06/02 10:24:37;;;;;;;;;;;;;;;12.96;46.81;101743.88;108816;1256;73053;-83
2023/06/02 10:27:06;;;;;;;;;;;;;;;13.07;46.72;101750.54;108813;1258;58528;-83
2023/06/02 10:29:33;;;;;;;;;;;;;;;13.16;46.96;101748.19;108957;1257;123693;-83
2023/06/02 10:32:00;;;;;;;;;;;;;;;13.20;47.40;101746.73;109022;1256;73874;-84
2023/06/02 10:34:45;;;;;;;;;;;;;;;13.30;47.36;101748.45;108729;1255;124520;-84
2023/06/02 10:37:13;;;;;;;;;;;;;;;13.36;47.42;101756.23;108897;1271;72091;-84
2023/06/02 10:39:40;;;;;;;;;;;;;;;13.41;47.60;101762.90;108963;1258;123997;-83
2023/06/02 10:42:06;;;;;;;;;;;;;;;13.35;47.30;101752.83;109042;1257;59040;-83
2023/06/02 10:44:32;;;;;;;;;;;;;;;13.29;47.67;101760.02;108891;1260;58335;-85
2023/06/02 10:47:17;;;;;;;;;;;;;;;13.18;47.36;101771.48;108786;1255;124063;-82
2023/06/02 10:50:02;;;;;;;;;;;;;;;13.18;47.70;101757.40;108984;1256;71551;-83
2023/06/02 10:52:32;;;;;;;;;;;;;;;13.30;47.74;101761.14;108683;1258;125172;-83
2023/06/02 10:55:26;;;;;;;;;;;;;;;13.19;47.39;101775.23;108742;1257;61128;-83
2023/06/02 10:57:55;;;;;;;;;;;;;;;12.96;47.66;101762.92;108737;1257;124061;-82
2023/06/02 11:00:43;;;;;;;;;;;;;;;12.96;47.63;101764.49;108960;1257;66901;-82
2023/06/02 11:03:09;;;;;;;;;;;;;;;13.00;47.37;101778.54;108812;1256;73272;-85
2023/06/02 11:05:37;;;;;;;;;;;;;;;12.97;47.43;101782.85;108932;1257;126138;-83
2023/06/02 11:08:27;;;;;;;;;;;;;;;12.92;47.66;101773.34;108802;1257;60662;-84
2023/06/02 11:10:54;;;;;;;;;;;;;;;12.99;47.76;101772.52;108857;1257;124181;-83
2023/06/02 11:13:21;;;;;;;;;;;;;;;13.14;47.96;101772.45;108879;1256;67254;-84
2023/06/02 11:15:54;;;;;;;;;;;;;;;13.24;47.75;101784.23;108911;1259;125349;-84
2023/06/02 11:18:33;;;;;;;;;;;;;;;13.13;47.53;101779.29;108856;1256;58891;-83
2023/06/02 11:21:01;;;;;;;;;;;;;;;13.12;47.58;101783.82;108926;1257;60170;-84
2023/06/02 11:23:28;;;;;;;;;;;;;;;13.14;47.57;101788.30;108707;1256;124265;-84
2023/06/02 11:26:00;;;;;;;;;;;;;;;13.20;47.39;101787.95;108764;1256;58437;-84
2023/06/02 11:28:28;;;;;;;;;;;;;;;13.19;46.82;101786.00;108923;1257;125619;-85
2023/06/02 11:31:11;;;;;;;;;;;;;;;13.17;46.86;101794.20;108874;1260;58693;-84
2023/06/02 11:33:38;;;;;;;;;;;;;;;13.15;47.02;101796.42;108959;1256;124391;-82
2023/06/02 11:36:05;;;;;;;;;;;;;;;13.11;47.28;101792.27;109036;1259;74657;-82
2023/06/02 11:38:32;;;;;;;;;;;;;;;13.20;47.45;101797.50;108884;1256;66381;-83
2023/06/02 11:41:14;;;;;;;;;;;;;;;13.25;46.98;101802.21;108754;1256;124673;-83
2023/06/02 11:43:42;;;;;;;;;;;;;;;13.16;46.70;101798.76;108777;1256;58688;-83
2023/06/02 11:46:10;;;;;;;;;;;;;;;13.11;46.77;101814.29;108761;1256;124138;-83
2023/06/02 11:48:40;;;;;;;;;;;;;;;13.08;46.44;101806.26;108831;1257;74675;-83
2023/06/02 11:51:10;;;;;;;;;;;;;;;13.07;46.63;101818.22;108829;1256;66933;-83
2023/06/02 11:53:44;;;;;;;;;;;;;;;13.06;46.85;101809.38;108688;1257;124479;-83
2023/06/02 11:56:14;;;;;;;;;;;;;;;13.09;46.89;101808.39;108825;1256;58778;-83
2023/06/02 11:58:40;;;;;;;;;;;;;;;13.08;47.02;101814.72;108794;1256;125278;-83
2023/06/02 12:01:07;;;;;;;;;;;;;;;13.13;47.08;101808.71;108847;1255;73813;-83
2023/06/02 12:03:34;;;;;;;;;;;;;;;13.20;47.07;101813.88;108905;1257;124014;-83
2023/06/02 12:06:07;;;;;;;;;;;;;;;13.25;46.75;101813.31;108972;1270;73053;-83
2023/06/02 12:08:33;;;;;;;;;;;;;;;13.30;46.86;101812.61;109006;1256;58624;-83
2023/06/02 12:11:00;;;;;;;;;;;;;;;13.28;46.78;101810.23;108756;1257;124231;-83
2023/06/02 12:13:27;;;;;;;;;;;;;;;13.36;46.66;101807.15;108833;1257;73620;-84
2023/06/02 12:15:54;;;;;;;;;;;;;;;13.43;46.30;101817.98;108863;1256;125092;-83
2023/06/02 12:18:27;;;;;;;;;;;;;;;13.44;45.95;101810.58;108965;1256;59017;-83
2023/06/02 12:20:53;;;;;;;;;;;;;;;13.45;45.95;101825.59;108845;1271;59048;-83
2023/06/02 12:23:19;;;;;;;;;;;;;;;13.36;45.90;101818.81;108948;1255;124378;-83
2023/06/02 12:26:04;;;;;;;;;;;;;;;13.38;45.81;101824.69;108774;1260;58699;-83
2023/06/02 12:28:30;;;;;;;;;;;;;;;13.38;45.56;101830.67;108846;1257;124199;-83
2023/06/02 12:30:57;;;;;;;;;;;;;;;13.34;45.87;101833.20;109044;1256;74000;-83
2023/06/02 12:33:23;;;;;;;;;;;;;;;13.34;45.95;101836.18;108753;1256;124224;-82